createdAt,value
2018-05-08T00:00:49.055Z,8.00
2018-05-08T00:01:52.212Z,7.00
2018-05-08T00:02:55.992Z,5.50
2018-05-08T00:03:58.826Z,7.50
2018-05-08T00:05:01.554Z,5.00
2018-05-08T00:06:04.608Z,7.75
2018-05-08T00:07:07.481Z,6.50
2018-05-08T00:08:10.725Z,7.75
2018-05-08T00:09:16.667Z,7.00
2018-05-08T00:10:19.433Z,7.00
2018-05-08T00:11:22.169Z,7.75
2018-05-08T00:12:24.889Z,7.75
2018-05-08T00:13:28.227Z,7.50
2018-05-08T00:14:31.467Z,7.00
2018-05-08T00:15:34.241Z,7.25
2018-05-08T00:16:37.722Z,9.75
2018-05-08T00:17:40.433Z,8.75
2018-05-08T00:18:43.192Z,8.00
2018-05-08T00:19:45.995Z,10.25
2018-05-08T00:20:49.136Z,9.00
2018-05-08T00:21:51.888Z,7.25
2018-05-08T00:22:54.637Z,6.00
2018-05-08T00:23:57.471Z,6.50
2018-05-08T00:25:00.208Z,8.00
2018-05-08T00:26:03.044Z,8.00
2018-05-08T00:27:06.245Z,7.00
2018-05-08T00:28:09.121Z,7.75
2018-05-08T00:29:12.058Z,7.25
2018-05-08T00:30:14.859Z,7.00
2018-05-08T00:31:17.746Z,8.00
2018-05-08T00:32:20.551Z,8.00
2018-05-08T00:33:23.727Z,7.00
2018-05-08T00:34:26.496Z,7.00
2018-05-08T00:35:29.263Z,7.00
2018-05-08T00:36:32.049Z,7.50
2018-05-08T00:37:34.857Z,5.00
2018-05-08T00:38:37.625Z,6.00
2018-05-08T00:39:40.836Z,5.50
2018-05-08T00:40:43.877Z,6.50
2018-05-08T00:41:46.694Z,8.50
2018-05-08T00:42:49.433Z,6.50
2018-05-08T00:43:52.570Z,7.00
2018-05-08T00:44:55.323Z,6.50
2018-05-08T00:45:58.437Z,7.75
2018-05-08T00:47:02.587Z,5.50
2018-05-08T00:48:05.457Z,7.25
2018-05-08T00:49:08.306Z,5.00
2018-05-08T00:50:11.572Z,7.75
2018-05-08T00:51:14.324Z,8.00
2018-05-08T00:52:17.585Z,8.00
2018-05-08T00:53:20.370Z,8.00
2018-05-08T00:54:23.127Z,8.00
2018-05-08T00:55:25.925Z,10.00
2018-05-08T00:56:28.663Z,8.00
2018-05-08T00:57:31.498Z,8.50
2018-05-08T00:58:34.559Z,10.00
2018-05-08T00:59:37.301Z,11.00
2018-05-08T01:00:40.134Z,8.50
2018-05-08T01:01:43.167Z,9.00
2018-05-08T01:02:45.958Z,10.25
2018-05-08T01:03:49.617Z,8.00
2018-05-08T01:04:53.166Z,10.00
2018-05-08T01:05:57.444Z,8.00
2018-05-08T01:07:07.456Z,9.50
2018-05-08T01:08:10.485Z,10.00
2018-05-08T01:10:22.696Z,8.00
2018-05-08T01:11:25.796Z,8.00
2018-05-08T01:12:29.580Z,9.50
2018-05-08T01:13:32.637Z,8.00
2018-05-08T01:14:35.466Z,12.00
2018-05-08T01:15:38.336Z,13.25
2018-05-08T01:16:41.254Z,11.00
2018-05-08T01:17:44.493Z,11.50
2018-05-08T01:18:47.482Z,11.00
2018-05-08T01:19:50.333Z,10.50
2018-05-08T01:20:53.309Z,10.00
2018-05-08T01:21:57.859Z,10.50
2018-05-08T01:23:01.333Z,10.25
2018-05-08T01:24:04.671Z,10.25
2018-05-08T01:25:07.452Z,8.00
2018-05-08T01:26:10.365Z,9.25
2018-05-08T01:27:13.778Z,10.25
2018-05-08T01:28:16.617Z,10.00
2018-05-08T01:29:21.047Z,14.00
2018-05-08T01:30:23.845Z,13.50
2018-05-08T01:31:26.583Z,16.00
2018-05-08T01:32:29.296Z,12.00
2018-05-08T01:33:32.085Z,10.00
2018-05-08T01:34:34.887Z,10.50
2018-05-08T01:35:38.217Z,10.00
2018-05-08T01:36:40.984Z,13.00
2018-05-08T01:37:43.748Z,11.50
2018-05-08T01:38:46.664Z,13.00
2018-05-08T01:39:49.449Z,11.75
2018-05-08T01:40:52.200Z,13.25
2018-05-08T01:41:58.092Z,14.00
2018-05-08T01:43:01.151Z,14.75
2018-05-08T01:44:05.741Z,13.00
2018-05-08T01:45:08.490Z,15.25
2018-05-08T01:46:11.416Z,14.50
2018-05-08T01:47:14.181Z,15.50
2018-05-08T01:48:17.365Z,18.25
2018-05-08T01:49:20.239Z,16.00
2018-05-08T01:50:23.041Z,17.75
2018-05-08T01:51:25.806Z,17.75
2018-05-08T01:52:28.664Z,18.25
2018-05-08T01:53:31.501Z,15.50
2018-05-08T01:54:34.830Z,16.00
2018-05-08T01:55:37.778Z,21.25
2018-05-08T01:56:40.609Z,21.50
2018-05-08T01:57:43.408Z,23.00
2018-05-08T01:58:46.239Z,19.50
2018-05-08T01:59:49.109Z,16.25
2018-05-08T02:00:52.235Z,17.25
2018-05-08T02:01:55.048Z,16.25
2018-05-08T02:02:57.977Z,15.50
2018-05-08T02:04:00.794Z,20.75
2018-05-08T02:05:03.627Z,20.75
2018-05-08T02:06:06.426Z,21.00
2018-05-08T02:07:09.803Z,22.00
2018-05-08T02:08:12.584Z,20.50
2018-05-08T02:09:15.433Z,23.75
2018-05-08T02:10:18.245Z,21.25
2018-05-08T02:11:21.056Z,20.25
2018-05-08T02:12:23.831Z,21.75
2018-05-08T02:13:27.091Z,19.00
2018-05-08T02:14:29.872Z,20.75
2018-05-08T02:15:32.655Z,17.25
2018-05-08T02:16:35.449Z,29.75
2018-05-08T02:17:38.239Z,26.75
2018-05-08T02:18:41.028Z,23.25
2018-05-08T02:19:44.360Z,20.00
2018-05-08T02:20:47.232Z,18.75
2018-05-08T02:21:50.023Z,17.75
2018-05-08T02:22:52.806Z,14.75
2018-05-08T02:23:55.559Z,15.25
2018-05-08T02:24:58.336Z,21.25
2018-05-08T02:26:01.154Z,16.50
2018-05-08T02:27:04.017Z,16.50
2018-05-08T02:28:06.845Z,18.75
2018-05-08T02:29:09.675Z,16.50
2018-05-08T02:30:12.473Z,20.00
2018-05-08T02:31:15.836Z,17.00
2018-05-08T02:32:18.615Z,21.00
2018-05-08T02:33:21.416Z,16.50
2018-05-08T02:34:24.203Z,18.00
2018-05-08T02:35:27.038Z,16.00
2018-05-08T02:36:29.891Z,17.00
2018-05-08T02:37:33.284Z,18.50
2018-05-08T02:38:36.144Z,18.00
2018-05-08T02:39:38.972Z,19.00
2018-05-08T02:40:41.814Z,20.25
2018-05-08T02:41:44.569Z,16.50
2018-05-08T02:42:47.384Z,17.00
2018-05-08T02:43:50.650Z,15.25
2018-05-08T02:44:53.983Z,14.00
2018-05-08T02:45:56.816Z,12.00
2018-05-08T02:46:59.607Z,12.00
2018-05-08T02:48:02.445Z,9.25
2018-05-08T02:49:05.298Z,9.75
2018-05-08T02:50:08.164Z,9.25
2018-05-08T02:51:11.099Z,10.00
2018-05-08T02:52:13.906Z,11.50
2018-05-08T02:53:16.864Z,9.00
2018-05-08T02:54:19.668Z,12.00
2018-05-08T02:55:22.882Z,11.50
2018-05-08T02:56:25.736Z,11.50
2018-05-08T02:57:28.543Z,12.00
2018-05-08T02:58:31.320Z,15.00
2018-05-08T02:59:34.158Z,12.50
2018-05-08T03:00:37.036Z,12.50
2018-05-08T03:01:40.318Z,12.50
2018-05-08T03:02:43.215Z,12.00
2018-05-08T03:03:45.975Z,10.50
2018-05-08T03:04:48.816Z,12.50
2018-05-08T03:05:51.669Z,10.50
2018-05-08T03:06:54.443Z,12.00
2018-05-08T03:07:57.775Z,12.50
2018-05-08T03:09:00.691Z,12.00
2018-05-08T03:10:03.504Z,13.75
2018-05-08T03:11:06.322Z,12.00
2018-05-08T03:12:09.108Z,12.00
2018-05-08T03:13:11.902Z,9.75
2018-05-08T03:14:15.219Z,9.75
2018-05-08T03:15:17.995Z,9.75
2018-05-08T03:16:20.800Z,9.00
2018-05-08T03:17:23.633Z,9.25
2018-05-08T03:18:26.456Z,9.00
2018-05-08T03:19:29.224Z,9.50
2018-05-08T03:20:32.415Z,7.00
2018-05-08T03:21:35.213Z,9.00
2018-05-08T03:22:38.052Z,10.00
2018-05-08T03:23:41.292Z,11.00
2018-05-08T03:24:44.129Z,15.00
2018-05-08T03:25:46.888Z,11.00
2018-05-08T03:26:50.081Z,14.00
2018-05-08T03:27:52.916Z,12.75
2018-05-08T03:28:56.249Z,10.00
2018-05-08T03:29:59.069Z,12.00
2018-05-08T03:31:01.841Z,13.25
2018-05-08T03:32:04.604Z,11.00
2018-05-08T03:33:07.712Z,12.50
2018-05-08T03:34:10.588Z,9.25
2018-05-08T03:35:13.793Z,9.00
2018-05-08T03:36:16.821Z,12.75
2018-05-08T03:37:20.627Z,10.75
2018-05-08T03:38:23.432Z,10.00
2018-05-08T03:39:26.754Z,11.00
2018-05-08T03:40:29.548Z,10.75
2018-05-08T03:41:32.312Z,10.00
2018-05-08T03:42:35.072Z,12.00
2018-05-08T03:43:37.908Z,13.25
2018-05-08T03:44:40.720Z,11.00
2018-05-08T03:45:43.926Z,13.00
2018-05-08T03:46:46.798Z,12.00
2018-05-08T03:47:49.577Z,13.00
2018-05-08T03:48:52.429Z,11.75
2018-05-08T03:49:55.221Z,11.25
2018-05-08T03:50:58.154Z,12.50
2018-05-08T03:52:01.261Z,10.75
2018-05-08T03:53:04.143Z,12.00
2018-05-08T03:54:07.003Z,10.75
2018-05-08T03:55:09.787Z,12.50
2018-05-08T03:56:12.599Z,12.50
2018-05-08T03:57:15.388Z,13.00
2018-05-08T03:58:18.500Z,12.00
2018-05-08T03:59:21.261Z,14.50
2018-05-08T04:00:24.086Z,13.00
2018-05-08T04:01:26.955Z,12.00
2018-05-08T04:02:29.729Z,14.75
2018-05-08T04:03:32.527Z,14.50
2018-05-08T04:04:35.758Z,12.50
2018-05-08T04:05:38.620Z,13.50
2018-05-08T04:06:41.410Z,12.50
2018-05-08T04:07:44.165Z,12.50
2018-05-08T04:08:47.025Z,13.00
2018-05-08T04:09:49.793Z,13.50
2018-05-08T04:10:53.025Z,14.50
2018-05-08T04:11:55.862Z,11.75
2018-05-08T04:12:58.683Z,11.00
2018-05-08T04:14:01.503Z,13.00
2018-05-08T04:15:04.382Z,11.50
2018-05-08T04:16:07.260Z,14.50
2018-05-08T04:17:10.502Z,13.50
2018-05-08T04:18:13.362Z,13.50
2018-05-08T04:19:16.226Z,14.00
2018-05-08T04:20:19.124Z,12.00
2018-05-08T04:21:21.980Z,12.00
2018-05-08T04:22:24.763Z,14.75
2018-05-08T04:23:27.885Z,15.25
2018-05-08T04:24:30.761Z,14.50
2018-05-08T04:25:33.584Z,14.00
2018-05-08T04:26:36.361Z,14.25
2018-05-08T04:27:39.201Z,12.50
2018-05-08T04:28:42.036Z,12.00
2018-05-08T04:29:45.320Z,14.25
2018-05-08T04:30:48.212Z,14.25
2018-05-08T04:31:51.016Z,12.00
2018-05-08T04:32:53.856Z,13.50
2018-05-08T04:33:56.672Z,15.00
2018-05-08T04:34:59.525Z,14.75
2018-05-08T04:36:02.810Z,18.75
2018-05-08T04:37:05.684Z,16.00
2018-05-08T04:38:08.512Z,14.00
2018-05-08T04:39:11.379Z,15.00
2018-05-08T04:40:14.199Z,17.00
2018-05-08T04:41:16.956Z,17.75
2018-05-08T04:42:20.308Z,19.00
2018-05-08T04:43:23.147Z,20.00
2018-05-08T04:44:25.943Z,19.00
2018-05-08T04:45:28.716Z,18.75
2018-05-08T04:46:31.487Z,18.50
2018-05-08T04:47:34.535Z,19.75
2018-05-08T04:48:37.703Z,18.50
2018-05-08T04:49:40.489Z,21.00
2018-05-08T04:50:43.285Z,21.00
2018-05-08T04:51:46.134Z,21.50
2018-05-08T04:52:48.963Z,24.00
2018-05-08T04:53:51.790Z,22.25
2018-05-08T04:54:55.090Z,20.50
2018-05-08T04:55:57.993Z,17.50
2018-05-08T04:57:00.906Z,17.00
2018-05-08T04:58:03.787Z,18.25
2018-05-08T04:59:06.551Z,16.50
2018-05-08T05:00:09.484Z,16.50
2018-05-08T05:01:12.899Z,14.25
2018-05-08T05:02:15.722Z,17.25
2018-05-08T05:03:18.552Z,23.00
2018-05-08T05:04:21.564Z,24.50
2018-05-08T05:05:24.307Z,24.75
2018-05-08T05:06:28.181Z,23.00
2018-05-08T05:07:31.056Z,18.00
2018-05-08T05:08:33.903Z,20.75
2018-05-08T05:09:36.694Z,20.25
2018-05-08T05:10:39.481Z,23.00
2018-05-08T05:11:42.454Z,22.00
2018-05-08T05:12:45.609Z,19.00
2018-05-08T05:13:48.477Z,19.50
2018-05-08T05:14:51.270Z,21.00
2018-05-08T05:15:54.067Z,20.00
2018-05-08T05:16:56.841Z,21.00
2018-05-08T05:17:59.716Z,22.00
2018-05-08T05:19:02.488Z,24.75
2018-05-08T05:20:05.281Z,30.75
2018-05-08T05:21:08.232Z,27.25
2018-05-08T05:22:11.025Z,24.50
2018-05-08T05:23:13.806Z,23.00
2018-05-08T05:24:16.583Z,24.50
2018-05-08T05:25:19.879Z,25.50
2018-05-08T05:26:22.747Z,24.25
2018-05-08T05:27:25.534Z,24.50
2018-05-08T05:28:28.401Z,27.75
2018-05-08T05:29:31.241Z,27.75
2018-05-08T05:30:34.057Z,28.50
2018-05-08T05:31:37.413Z,26.00
2018-05-08T05:32:40.230Z,25.00
2018-05-08T05:33:43.025Z,24.50
2018-05-08T05:34:45.821Z,23.25
2018-05-08T05:35:48.595Z,23.50
2018-05-08T05:36:51.393Z,23.50
2018-05-08T05:37:54.535Z,21.00
2018-05-08T05:38:57.340Z,17.50
2018-05-08T05:40:00.133Z,18.25
2018-05-08T05:41:03.065Z,17.00
2018-05-08T05:42:05.873Z,17.50
2018-05-08T05:43:08.862Z,16.50
2018-05-08T05:44:12.090Z,18.50
2018-05-08T05:45:14.952Z,17.25
2018-05-08T05:46:17.813Z,18.00
2018-05-08T05:47:20.643Z,15.00
2018-05-08T05:48:23.435Z,12.00
2018-05-08T05:49:26.318Z,12.75
2018-05-08T05:50:29.463Z,13.00
2018-05-08T05:51:32.267Z,15.00
2018-05-08T05:52:35.067Z,13.00
2018-05-08T05:53:37.840Z,13.00
2018-05-08T05:54:40.611Z,12.00
2018-05-08T05:55:43.392Z,14.00
2018-05-08T05:56:46.491Z,15.00
2018-05-08T05:57:49.299Z,15.00
2018-05-08T05:58:52.124Z,15.00
2018-05-08T05:59:55.059Z,16.50
2018-05-08T06:00:57.865Z,14.75
2018-05-08T06:02:00.641Z,17.25
2018-05-08T06:03:03.907Z,18.75
2018-05-08T06:04:06.724Z,15.25
2018-05-08T06:05:09.629Z,14.25
2018-05-08T06:06:12.418Z,12.50
2018-05-08T06:07:15.188Z,16.50
2018-05-08T06:08:17.996Z,16.00
2018-05-08T06:09:21.395Z,14.00
2018-05-08T06:10:24.175Z,16.00
2018-05-08T06:11:26.959Z,16.00
2018-05-08T06:12:29.754Z,16.50
2018-05-08T06:13:32.667Z,18.50
2018-05-08T06:14:36.143Z,16.50
2018-05-08T06:15:40.155Z,13.00
2018-05-08T06:16:42.971Z,15.50
2018-05-08T06:17:45.788Z,13.50
2018-05-08T06:18:49.661Z,14.00
2018-05-08T06:19:52.759Z,14.00
2018-05-08T06:20:55.893Z,15.00
2018-05-08T06:21:59.096Z,17.00
2018-05-08T06:23:01.888Z,14.00
2018-05-08T06:24:04.681Z,15.25
2018-05-08T06:25:07.509Z,19.50
2018-05-08T06:26:10.317Z,16.25
2018-05-08T06:27:13.471Z,17.75
2018-05-08T06:28:16.724Z,19.00
2018-05-08T06:29:20.475Z,15.00
2018-05-08T06:30:23.280Z,18.00
2018-05-08T06:31:26.103Z,18.00
2018-05-08T06:32:28.886Z,18.00
2018-05-08T06:33:31.705Z,18.00
2018-05-08T06:34:34.862Z,19.25
2018-05-08T06:35:37.668Z,18.50
2018-05-08T06:36:40.442Z,18.75
2018-05-08T06:37:43.297Z,16.00
2018-05-08T06:38:46.136Z,15.50
2018-05-08T06:39:48.942Z,15.25
2018-05-08T06:40:52.273Z,15.00
2018-05-08T06:41:55.393Z,23.00
2018-05-08T06:42:58.165Z,19.50
2018-05-08T06:44:00.996Z,14.25
2018-05-08T06:45:03.831Z,15.25
2018-05-08T06:46:06.699Z,11.50
2018-05-08T06:47:10.553Z,13.75
2018-05-08T06:48:13.331Z,18.00
2018-05-08T06:49:16.150Z,13.75
2018-05-08T06:50:18.981Z,12.00
2018-05-08T06:51:21.782Z,9.00
2018-05-08T06:52:24.639Z,11.00
2018-05-08T06:53:27.417Z,12.00
2018-05-08T06:54:30.428Z,9.00
2018-05-08T06:55:33.302Z,8.00
2018-05-08T06:56:36.124Z,10.00
2018-05-08T06:57:38.928Z,11.00
2018-05-08T06:58:41.769Z,9.50
2018-05-08T06:59:44.584Z,12.00
2018-05-08T07:00:47.388Z,10.00
2018-05-08T07:01:50.235Z,7.00
2018-05-08T07:02:53.048Z,7.00
2018-05-08T07:03:56.208Z,5.75
2018-05-08T07:04:58.999Z,6.00
2018-05-08T07:06:01.813Z,5.00
2018-05-08T07:07:04.600Z,5.00
2018-05-08T07:08:07.418Z,8.00
2018-05-08T07:09:10.343Z,8.00
2018-05-08T07:10:13.501Z,7.50
2018-05-08T07:11:16.324Z,7.50
2018-05-08T07:12:19.260Z,6.00
2018-05-08T07:13:22.080Z,7.00
2018-05-08T07:14:24.871Z,5.00
2018-05-08T07:15:27.656Z,6.00
2018-05-08T07:16:30.782Z,4.75
2018-05-08T07:17:33.628Z,4.75
2018-05-08T07:18:36.429Z,5.00
2018-05-08T07:19:39.179Z,5.50
2018-05-08T07:20:42.148Z,4.75
2018-05-08T07:21:45.236Z,4.25
2018-05-08T07:22:48.485Z,4.75
2018-05-08T07:23:51.411Z,2.50
2018-05-08T07:24:54.311Z,5.00
2018-05-08T07:25:57.089Z,4.00
2018-05-08T07:26:59.976Z,5.00
2018-05-08T07:28:02.729Z,5.00
2018-05-08T07:29:05.937Z,5.25
2018-05-08T07:30:08.752Z,5.00
2018-05-08T07:31:11.518Z,5.75
2018-05-08T07:32:14.339Z,5.00
2018-05-08T07:33:17.142Z,5.00
2018-05-08T07:34:19.951Z,5.75
2018-05-08T07:35:23.124Z,5.75
2018-05-08T07:36:25.913Z,5.00
2018-05-08T07:37:28.849Z,5.00
2018-05-08T07:38:31.653Z,5.75
2018-05-08T07:39:34.476Z,6.00
2018-05-08T07:40:37.320Z,6.00
2018-05-08T07:41:40.088Z,4.25
2018-05-08T07:42:43.027Z,4.25
2018-05-08T07:43:45.889Z,5.00
2018-05-08T07:44:48.718Z,6.00
2018-05-08T07:45:51.523Z,5.75
2018-05-08T07:46:54.419Z,6.00
2018-05-08T07:47:57.549Z,5.25
2018-05-08T07:49:00.603Z,5.50
2018-05-08T07:50:03.667Z,6.00
2018-05-08T07:51:06.468Z,5.00
2018-05-08T07:52:10.078Z,6.50
2018-05-08T07:53:13.300Z,5.25
2018-05-08T07:54:16.218Z,5.00
2018-05-08T07:55:18.989Z,5.25
2018-05-08T07:56:21.839Z,6.25
2018-05-08T07:57:24.651Z,5.75
2018-05-08T07:58:27.819Z,4.75
2018-05-08T07:59:30.658Z,6.00
2018-05-08T08:00:33.510Z,6.00
2018-05-08T08:01:36.325Z,6.00
2018-05-08T08:02:39.183Z,4.75
2018-05-08T08:03:42.300Z,6.00
2018-05-08T08:04:45.570Z,6.00
2018-05-08T08:05:48.383Z,6.00
2018-05-08T08:06:51.208Z,6.75
2018-05-08T08:07:54.029Z,5.00
2018-05-08T08:08:56.840Z,6.00
2018-05-08T08:10:00.107Z,5.50
2018-05-08T08:11:03.378Z,6.00
2018-05-08T08:12:06.193Z,6.00
2018-05-08T08:13:08.980Z,5.25
2018-05-08T08:14:11.817Z,4.50
2018-05-08T08:15:14.742Z,5.75
2018-05-08T08:16:17.530Z,6.00
2018-05-08T08:17:20.866Z,6.00
2018-05-08T08:18:23.808Z,6.00
2018-05-08T08:19:26.624Z,6.00
2018-05-08T08:20:29.467Z,6.25
2018-05-08T08:21:32.455Z,6.00
2018-05-08T08:22:35.233Z,6.00
2018-05-08T08:23:38.513Z,7.00
2018-05-08T08:24:41.578Z,6.00
2018-05-08T08:25:44.447Z,5.50
2018-05-08T08:26:47.838Z,5.00
2018-05-08T08:27:50.684Z,6.00
2018-05-08T08:28:53.529Z,6.00
2018-05-08T08:29:56.740Z,6.00
2018-05-08T08:30:59.544Z,6.00
2018-05-08T08:32:02.434Z,5.00
2018-05-08T08:33:05.397Z,5.25
2018-05-08T08:34:08.242Z,6.00
2018-05-08T08:35:11.057Z,6.00
2018-05-08T08:36:14.238Z,6.25
2018-05-08T08:37:17.087Z,6.00
2018-05-08T08:38:19.917Z,5.25
2018-05-08T08:39:22.827Z,5.25
2018-05-08T08:40:25.692Z,5.50
2018-05-08T08:41:28.484Z,5.50
2018-05-08T08:42:31.885Z,5.75
2018-05-08T08:43:34.662Z,6.00
2018-05-08T08:44:37.647Z,6.00
2018-05-08T08:45:40.472Z,6.00
2018-05-08T08:46:43.267Z,5.25
2018-05-08T08:47:46.192Z,6.50
2018-05-08T08:48:49.373Z,5.25
2018-05-08T08:49:52.333Z,4.75
2018-05-08T08:50:55.112Z,6.25
2018-05-08T08:51:57.909Z,6.50
2018-05-08T08:53:00.832Z,6.00
2018-05-08T08:54:03.679Z,6.00
2018-05-08T08:55:06.992Z,5.50
2018-05-08T08:56:09.870Z,6.00
2018-05-08T08:57:12.718Z,6.00
2018-05-08T08:58:15.567Z,4.00
2018-05-08T08:59:18.409Z,4.00
2018-05-08T09:00:21.215Z,5.00
2018-05-08T09:01:24.560Z,6.00
2018-05-08T09:02:27.416Z,6.00
2018-05-08T09:03:30.247Z,6.25
2018-05-08T09:04:33.071Z,6.25
2018-05-08T09:05:35.886Z,6.75
2018-05-08T09:06:38.706Z,6.00
2018-05-08T09:07:41.795Z,6.25
2018-05-08T09:08:45.261Z,6.00
2018-05-08T09:09:48.058Z,6.25
2018-05-08T09:10:50.985Z,6.00
2018-05-08T09:11:53.788Z,6.00
2018-05-08T09:12:56.600Z,6.00
2018-05-08T09:14:00.114Z,4.00
2018-05-08T09:15:02.918Z,6.00
2018-05-08T09:16:05.776Z,4.00
2018-05-08T09:17:08.654Z,4.00
2018-05-08T09:18:11.461Z,7.00
2018-05-08T09:19:14.251Z,6.00
2018-05-08T09:20:17.517Z,5.50
2018-05-08T09:21:20.278Z,4.00
2018-05-08T09:22:23.167Z,6.00
2018-05-08T09:23:26.027Z,5.50
2018-05-08T09:24:29.400Z,5.50
2018-05-08T09:25:32.300Z,5.50
2018-05-08T09:26:35.645Z,6.00
2018-05-08T09:27:38.427Z,6.00
2018-05-08T09:28:41.230Z,5.50
2018-05-08T09:29:44.082Z,6.00
2018-05-08T09:30:46.910Z,6.75
2018-05-08T09:31:49.790Z,5.50
2018-05-08T09:32:53.118Z,6.00
2018-05-08T09:33:55.995Z,4.00
2018-05-08T09:34:58.995Z,5.50
2018-05-08T09:36:01.853Z,4.50
2018-05-08T09:37:04.688Z,5.00
2018-05-08T09:38:07.572Z,5.50
2018-05-08T09:39:10.743Z,4.00
2018-05-08T09:40:13.541Z,6.00
2018-05-08T09:41:16.424Z,5.00
2018-05-08T09:42:19.257Z,5.00
2018-05-08T09:43:22.027Z,5.75
2018-05-08T09:44:24.887Z,5.00
2018-05-08T09:45:28.132Z,4.75
2018-05-08T09:46:32.213Z,5.00
2018-05-08T09:47:35.079Z,4.00
2018-05-08T09:48:37.923Z,5.75
2018-05-08T09:49:40.855Z,6.50
2018-05-08T09:50:43.684Z,4.00
2018-05-08T09:51:46.894Z,4.50
2018-05-08T09:52:50.235Z,6.00
2018-05-08T09:53:53.033Z,4.00
2018-05-08T09:54:55.955Z,6.00
2018-05-08T09:55:58.923Z,3.50
2018-05-08T09:57:01.823Z,5.50
2018-05-08T09:58:05.185Z,4.00
2018-05-08T09:59:08.532Z,6.00
2018-05-08T10:00:11.369Z,4.00
2018-05-08T10:01:14.232Z,4.00
2018-05-08T10:02:17.222Z,6.00
2018-05-08T10:03:20.060Z,3.75
2018-05-08T10:04:23.336Z,6.00
2018-05-08T10:05:29.130Z,7.25
2018-05-08T10:06:32.783Z,3.75
2018-05-08T10:07:35.613Z,5.50
2018-05-08T10:08:40.063Z,4.00
2018-05-08T10:09:46.008Z,4.00
2018-05-08T10:10:49.256Z,3.00
2018-05-08T10:11:52.061Z,4.00
2018-05-08T10:12:58.670Z,3.75
2018-05-08T10:14:02.315Z,3.25
2018-05-08T10:15:05.397Z,3.00
2018-05-08T10:16:08.829Z,4.00
2018-05-08T10:17:12.005Z,4.00
2018-05-08T10:18:16.029Z,4.00
2018-05-08T10:19:19.718Z,4.00
2018-05-08T10:20:22.545Z,5.75
2018-05-08T10:21:26.572Z,3.25
2018-05-08T10:22:29.491Z,4.00
2018-05-08T10:23:33.950Z,3.50
2018-05-08T10:24:36.865Z,3.00
2018-05-08T10:25:40.022Z,3.00
2018-05-08T10:26:42.992Z,4.00
2018-05-08T10:27:46.208Z,4.00
2018-05-08T10:28:49.267Z,4.00
2018-05-08T10:29:52.723Z,4.00
2018-05-08T10:30:56.094Z,4.00
2018-05-08T10:31:59.559Z,4.50
2018-05-08T10:33:02.621Z,3.75
2018-05-08T10:34:06.071Z,4.00
2018-05-08T10:35:09.920Z,4.00
2018-05-08T10:36:12.990Z,6.00
2018-05-08T10:37:16.441Z,5.50
2018-05-08T10:38:20.296Z,4.00
2018-05-08T10:39:24.968Z,4.00
2018-05-08T10:40:28.888Z,4.00
2018-05-08T10:41:31.844Z,3.25
2018-05-08T10:42:35.066Z,3.75
2018-05-08T10:43:38.041Z,4.00
2018-05-08T10:44:41.064Z,4.00
2018-05-08T10:45:43.871Z,4.00
2018-05-08T10:46:47.417Z,4.00
2018-05-08T10:47:50.247Z,3.00
2018-05-08T10:48:53.976Z,4.00
2018-05-08T10:49:56.769Z,4.00
2018-05-08T10:50:59.557Z,3.00
2018-05-08T10:52:02.370Z,4.00
2018-05-08T10:53:06.332Z,4.00
2018-05-08T10:54:09.087Z,4.50
2018-05-08T10:55:12.606Z,3.00
2018-05-08T10:56:15.779Z,3.00
2018-05-08T10:57:19.513Z,3.25
2018-05-08T10:58:22.453Z,2.50
2018-05-08T10:59:25.282Z,3.00
2018-05-08T11:00:28.933Z,2.00
2018-05-08T11:01:32.178Z,3.25
2018-05-08T11:02:35.032Z,3.50
2018-05-08T11:03:37.994Z,3.00
2018-05-08T11:04:40.771Z,3.75
2018-05-08T11:05:44.091Z,3.75
2018-05-08T11:06:46.875Z,3.75
2018-05-08T11:07:50.266Z,2.50
2018-05-08T11:08:53.722Z,2.50
2018-05-08T11:09:57.788Z,2.00
2018-05-08T11:11:00.627Z,2.50
2018-05-08T11:12:04.307Z,3.00
2018-05-08T11:13:07.160Z,3.00
2018-05-08T11:14:10.299Z,3.00
2018-05-08T11:15:14.909Z,3.00
2018-05-08T11:16:18.295Z,3.25
2018-05-08T11:17:21.172Z,2.00
2018-05-08T11:18:24.230Z,2.75
2018-05-08T11:19:27.146Z,3.00
2018-05-08T11:20:30.516Z,2.50
2018-05-08T11:21:34.312Z,3.00
2018-05-08T11:22:37.486Z,3.00
2018-05-08T11:23:40.359Z,2.75
2018-05-08T11:24:43.146Z,3.00
2018-05-08T11:25:45.916Z,3.00
2018-05-08T11:26:49.168Z,3.00
2018-05-08T11:27:53.257Z,3.25
2018-05-08T11:28:56.653Z,3.50
2018-05-08T11:29:59.428Z,3.00
2018-05-08T11:31:02.460Z,3.00
2018-05-08T11:32:06.133Z,3.75
2018-05-08T11:33:10.647Z,3.00
2018-05-08T11:34:14.368Z,3.00
2018-05-08T11:35:17.312Z,4.00
2018-05-08T11:36:22.075Z,3.00
2018-05-08T11:37:25.208Z,3.25
2018-05-08T11:38:27.983Z,4.00
2018-05-08T11:39:31.686Z,3.25
2018-05-08T11:40:34.811Z,3.00
2018-05-08T11:41:37.683Z,3.75
2018-05-08T11:42:41.036Z,4.25
2018-05-08T11:43:43.822Z,4.75
2018-05-08T11:44:47.099Z,4.00
2018-05-08T11:45:50.719Z,4.00
2018-05-08T11:46:53.511Z,3.00
2018-05-08T11:47:56.427Z,3.00
2018-05-08T11:48:59.354Z,4.00
2018-05-08T11:50:02.314Z,4.25
2018-05-08T11:51:05.409Z,4.00
2018-05-08T11:52:08.821Z,4.00
2018-05-08T11:53:11.683Z,4.00
2018-05-08T11:54:15.269Z,3.50
2018-05-08T11:55:18.112Z,4.00
2018-05-08T11:56:20.915Z,4.00
2018-05-08T11:57:23.695Z,4.75
2018-05-08T11:58:27.311Z,4.00
2018-05-08T11:59:30.330Z,4.00
2018-05-08T12:00:33.137Z,4.00
2018-05-08T12:01:36.023Z,4.00
2018-05-08T12:02:38.956Z,4.00
2018-05-08T12:03:41.791Z,4.00
2018-05-08T12:04:44.900Z,4.00
2018-05-08T12:05:47.790Z,5.25
2018-05-08T12:06:50.642Z,5.00
2018-05-08T12:07:53.574Z,4.00
2018-05-08T12:08:56.429Z,4.75
2018-05-08T12:09:59.209Z,4.50
2018-05-08T12:11:01.988Z,3.00
2018-05-08T12:12:04.896Z,5.00
2018-05-08T12:13:07.796Z,4.25
2018-05-08T12:14:11.414Z,5.00
2018-05-08T12:15:15.412Z,5.00
2018-05-08T12:16:18.506Z,4.00
2018-05-08T12:17:21.859Z,4.00
2018-05-08T12:18:24.747Z,4.00
2018-05-08T12:19:28.293Z,4.00
2018-05-08T12:20:31.258Z,4.25
2018-05-08T12:21:34.134Z,3.25
2018-05-08T12:22:36.916Z,4.00
2018-05-08T12:23:40.461Z,4.00
2018-05-08T12:24:45.161Z,4.50
2018-05-08T12:25:48.589Z,4.25
2018-05-08T12:26:51.422Z,5.00
2018-05-08T12:27:54.475Z,5.00
2018-05-08T12:28:57.291Z,3.75
2018-05-08T12:30:02.366Z,4.00
2018-05-08T12:31:06.245Z,4.00
2018-05-08T12:32:09.052Z,5.00
2018-05-08T12:33:11.821Z,4.00
2018-05-08T12:34:15.211Z,4.75
2018-05-08T12:35:18.541Z,4.50
2018-05-08T12:36:21.619Z,5.00
2018-05-08T12:37:24.420Z,4.00
2018-05-08T12:38:27.352Z,4.00
2018-05-08T12:39:31.427Z,4.00
2018-05-08T12:40:35.039Z,4.00
2018-05-08T12:41:37.939Z,4.00
2018-05-08T12:42:40.882Z,5.00
2018-05-08T12:43:43.978Z,3.50
2018-05-08T12:44:47.539Z,3.50
2018-05-08T12:45:50.627Z,5.00
2018-05-08T12:46:54.465Z,3.00
2018-05-08T12:47:57.260Z,4.00
2018-05-08T12:49:00.166Z,4.00
2018-05-08T12:50:03.516Z,4.00
2018-05-08T12:51:06.922Z,4.25
2018-05-08T12:52:09.730Z,4.00
2018-05-08T12:53:13.049Z,3.25
2018-05-08T12:54:15.990Z,3.75
2018-05-08T12:55:20.159Z,3.75
2018-05-08T12:56:23.195Z,4.00
2018-05-08T12:57:25.970Z,4.00
2018-05-08T12:58:28.779Z,4.00
2018-05-08T12:59:33.259Z,3.50
2018-05-08T13:00:36.974Z,4.00
2018-05-08T13:01:39.900Z,3.25
2018-05-08T13:02:42.764Z,4.25
2018-05-08T13:03:45.893Z,4.25
2018-05-08T13:04:48.935Z,4.00
2018-05-08T13:05:52.233Z,4.00
2018-05-08T13:06:55.081Z,4.00
2018-05-08T13:07:58.041Z,4.00
2018-05-08T13:09:01.018Z,4.75
2018-05-08T13:10:03.847Z,4.00
2018-05-08T13:11:06.763Z,4.00
2018-05-08T13:12:10.174Z,4.00
2018-05-08T13:13:13.081Z,4.00
2018-05-08T13:14:15.845Z,5.00
2018-05-08T13:15:18.704Z,4.50
2018-05-08T13:16:21.503Z,4.25
2018-05-08T13:17:24.271Z,4.00
2018-05-08T13:18:27.482Z,4.75
2018-05-08T13:19:30.271Z,4.00
2018-05-08T13:21:52.021Z,3.50
2018-05-08T13:22:54.787Z,4.00
2018-05-08T13:23:57.805Z,4.00
2018-05-08T13:25:01.044Z,3.25
2018-05-08T13:26:04.300Z,4.25
2018-05-08T13:27:07.230Z,4.25
2018-05-08T13:28:10.082Z,4.00
2018-05-08T13:29:12.957Z,4.00
2018-05-08T13:30:15.811Z,4.00
2018-05-08T13:31:18.938Z,4.25
2018-05-08T13:32:21.747Z,4.50
2018-05-08T13:33:24.651Z,4.00
2018-05-08T13:34:27.582Z,4.25
2018-05-08T13:35:30.420Z,4.00
2018-05-08T13:36:33.307Z,4.75
2018-05-08T13:37:36.480Z,4.00
2018-05-08T13:38:39.308Z,5.50
2018-05-08T13:39:42.718Z,4.75
2018-05-08T13:40:45.758Z,4.25
2018-05-08T13:41:48.583Z,5.00
2018-05-08T13:42:51.482Z,3.50
2018-05-08T13:43:54.620Z,3.00
2018-05-08T13:44:57.475Z,4.00
2018-05-08T13:46:00.270Z,4.00
2018-05-08T13:47:03.103Z,4.25
2018-05-08T13:48:05.970Z,4.25
2018-05-08T13:49:08.810Z,5.25
2018-05-08T13:50:12.059Z,5.00